Date,TemperatureHighF,TemperatureAvgF,TemperatureLowF,DewpointHighF,DewpointAvgF,DewpointLowF,HumidityHigh,HumidityAvg,HumidityLow,PressureMaxIn,PressureMinIn,WindSpeedMaxMPH,WindSpeedAvgMPH,GustSpeedMaxMPH,PrecipitationSumIn
2013-3-1,36,28,21,29,24,19,93,83,69,30.46,30.36,13,2,0,0.00
2013-3-2,41,31,17,31,25,14,93,79,64,30.46,30.04,9,2,0,0.00
2013-3-3,39,33,22,33,28,15,94,82,59,30.04,29.73,18,10,0,0.00
2013-3-4,27,18,0,16,7,-5,90,66,40,30.21,29.86,8,3,0,0.00
2013-3-5,26,6,-11,8,-3,-15,85,69,46,30.26,30.04,5,2,0,0.00
2013-3-6,33,26,7,30,21,3,92,81,57,29.92,29.75,10,3,0,0.00
2013-3-7,35,25,15,26,19,11,93,77,52,30.02,29.90,6,2,0,0.00
2013-3-8,39,28,18,30,24,16,92,86,70,29.93,29.75,5,1,0,0.00
2013-3-9,38,28,18,20,15,9,90,61,34,30.21,29.80,13,7,0,0.00
2013-3-10,39,24,6,20,11,0,82,60,41,30.32,30.15,12,4,0,0.00
2013-3-11,39,33,28,29,19,11,83,58,36,30.17,30.04,16,6,0,0.00
2013-3-12,43,27,11,29,17,4,75,65,52,30.26,30.14,10,3,0,0.00
2013-3-13,50,43,33,32,29,26,84,60,41,30.32,30.26,8,2,0,0.00
2013-3-14,35,35,35,27,27,27,73,73,73,30.31,30.31,0,0,0,0.00
2013-3-15,50,47,42,28,26,23,56,44,35,30.11,30.03,11,6,0,0.00
2013-3-16,31,30,30,25,24,24,80,79,78,29.96,29.95,2,0,0,0.00
2013-3-17,28,25,22,19,12,5,87,59,38,29.80,29.59,19,11,0,0.00
2013-3-18,30,26,13,23,16,9,87,66,50,29.95,29.85,15,10,0,0.00
2013-3-19,40,26,12,12,4,-7,71,44,13,30.19,29.95,8,2,0,0.00
2013-3-20,34,26,14,32,20,3,95,78,53,30.19,29.69,9,4,0,0.00
2013-3-21,34,28,21,32,23,15,95,84,55,29.86,29.59,13,8,0,0.00
2013-3-22,26,17,5,13,8,1,94,69,54,29.92,29.77,7,3,0,0.00
2013-3-23,25,10,-7,9,-1,-11,92,64,30,30.10,29.90,11,3,0,0.00
2013-3-24,27,11,-7,7,0,-12,85,62,28,30.15,30.08,6,2,0,0.00
2013-3-25,34,13,-10,11,0,-14,86,61,29,30.20,30.03,9,2,0,0.00
2013-3-26,35,23,10,28,16,3,88,75,62,30.06,29.94,5,1,0,0.00
2013-3-27,46,34,26,32,27,23,92,78,50,30.08,29.98,7,1,0,0.00
2013-3-28,54,36,20,31,25,16,92,68,37,30.16,30.03,3,1,0,0.00
2013-3-29,47,35,25,36,29,22,91,79,54,30.20,30.11,15,3,0,0.00
2013-3-30,50,41,27,38,24,-100,96,58,29,30.23,30.19,6,2,0,0.00
2013-3-31,55,42,25,31,26,20,81,54,31,30.17,30.01,4,1,0,0.00